Hollywood, Mississippi
Current Conditions -  °F | °C
As of 6:35 AM on Monday 24 Nov 2014 (Local Time) from KUTA Reporting Station
Broken Clouds Broken Clouds  
Wind Chill: 50°   Ceiling: 3400
Heat Index: 50°   Visibility: 10mi
Dew Point: 43°   Wind: 15mph
Humidity: 76%   Direction: 270°W
Pressure: 29.78"   Gusts: 24mph
Location:  34.6827°N, 90.3615°W
Report Text: KUTA 241235Z AUTO 27013G21KT 10SM BKN034 10/06 A2978 RMK AO2
Loading
Personal Weather Stations






























Interactive Weather Map New forecast layout! Learn more

10-Day Weather Forecast

Advertisements
Track Severe Weather on mobile